ASN logo
Last updated: 17 January 2022
Statuts:Enquête Officielle
Date:mercredi 23 novembre 2016
Heure:17:59
Type/Sous-type:Silhouette image of generic BE20 model; specific model in this crash may look slightly different
Beechcraft 200 Super King Air
Compagnie:Flight Development, LLC
Immatriculation: N80RT
Numéro de série: BB-370
Année de Fabrication: 1978
Heures de vol:11000
Moteurs: 2 Pratt & Whitney Canada PT6A-41
Equipage:victimes: 0 / à bord: 1
Passagers:victimes: 0 / à bord: 6
Total:victimes: 0 / à bord: 7
Dégats de l'appareil: Substantiels
Conséquences: Written off (damaged beyond repair)
Lieu de l'accident:0,8 km (0.5 milles) E of Moorhead Municipal Airport, MN (   Etats-Unis d'Amérique)
Phase de vol: En approche (APR)
Nature:Charter National
Aéroport de départ:Baudette Airport, MN (BDE/KBDE), Etats-Unis d'Amérique
Aéroport de destination:Moorhead Municipal Airport, MN (KJKJ), Etats-Unis d'Amérique
Détails:
The Beech 200, N80RT, impacted terrain during a missed approach from runway 30 at Moorhead Municipal Airport (JKJ), Minnesota, USA. The pilot initiated a missed approach after losing visual reference of the runway environment during the final segment of a GPS instrument approach. The airplane impacted a field about 0.5 miles short of runway 30. The pilot and one passenger sustained minor injuries and five passengers were uninjured. The airplane received substantial damage.
The aircraft departed from Baudette Airport at 17:14 hours local time and was on approach to Moorhead Municipal Airport's runway 30 at the time of the accident.

Probable Cause:

PROBABLE CAUSE: "The pilot's failure to attain a positive climb rate during an attempted missed approach in night instrument meteorological conditions that were at/near approach minimums, which resulted in controlled flight into terrain."

Accident investigation:
cover
Investigating agency: NTSB
Status: Investigation completed
Duration: 287 days (10 months)
Accident number: CEN17LA043
Download report: Summary report

Sources:
» NTSB
» UPDATE: Federal investigators looking for cause of emergency landing near Moorhead airport (WDAY)
» VIDEO UPDATE: Seven Walk Away from Crash Landing Near Moorhead Airport (KVRR)
» Flightaware

METAR Weather report:
00:14 UTC / 18:14 local time:
KJKJ 240014Z AUTO 33005KT 1/2SM FG OVC003 01/01 A3010 RMK AO2

23:34 UTC / 17:34 local time:
KJKJ 232334Z AUTO 35007KT 3/4SM BR OVC003 01/00 A3010 RMK AO2

23:54 UTC / 17:54 local time:
KJKJ 232354Z AUTO 35007KT 1/2SM FG OVC003 01/01 A3010 RMK AO2


Photos

Add your photo of this accident or aircraft

Plan
Ce plan montre l'aéroport de départ ainsi que la supposée destination du vol. La ligne fixe reliant les deux aéroports n'est pas le plan de vol exact.
La distance entre Baudette Airport, MN et Moorhead Municipal Airport, MN est de 258 km (161 miles).
Accident location: Exact; deduced from official accident report.

Les informations ci-dessus ne représentent pas l'opinion de la 'Flight Safety Foundation' ou de 'Aviation Safety Network' sur les causes de l'accident. Ces informations prélimimaires sont basées sur les faits tel qu'ils sont connus à ce jour.
languages: languages

Share